Impacts METAR Board INFO
IDs:

KCVG - Cincinnati Intl, KY, US

Updated at: 1943 UTC 17 Feb 2018
Potential Impact None Slight Moderate High
Time17/07Z 17/08Z 17/09Z 17/10Z 17/11Z 17/12Z 17/13Z 17/14Z 17/15Z 17/16Z 17/17Z 17/18Z 17/19Z
VIS10 10 10 10 10 10 10 10 10 9 0.5 0.5 0.5
CIG32 31 30 28 29 200 30 110 100 45 10 3 4
CoverOVCBKNBKNOVCOVCOVCOVCOVCOVCOVCOVCOVCOVC
FltCatVFRVFRMVFRMVFRMVFRVFRMVFRVFRVFRVFRLIFRLIFRLIFR
WX--------------------SN FGSN FGSN FG
WDir000801101001101001200160080
WSpd0 0 0 6 5 5 7 6 7 0 5 0 3
WGst-- -- -- -- -- -- -- -- -- -- -- -- --
Raw hourly METARs
KCVG 170652Z 00000KT 10SM OVC032 01/M03 A3026 RMK AO2 SLP250 BINOVC T00061028
KCVG 170752Z 00000KT 10SM BKN031 01/M03 A3025 RMK AO2 SLP247 T00061028
KCVG 170852Z 00000KT 10SM BKN030 00/M03 A3023 RMK AO2 SLP241 T00001028 58012
KCVG 170952Z 08006KT 10SM BKN028 OVC250 M01/M02 A3020 RMK AO2 SLP232 BINOVC T10061022
KCVG 171052Z 11005KT 10SM OVC029 M01/M02 A3020 RMK AO2 SLP232 BINOVC T10061022
KCVG 171152Z 10005KT 10SM SCT029 OVC200 M01/M02 A3018 RMK AO2 SLP226 BINOVC 70007 T10061022 10017 21006 56015
KCVG 171252Z 11007KT 10SM BKN030 OVC150 00/M02 A3017 RMK AO2 SLP221 T00001022
KCVG 171352Z 10006KT 10SM BKN110 OVC150 01/M02 A3017 RMK AO2 SLP221 T00061022
KCVG 171452Z 12007KT 10SM BKN100 OVC120 01/M02 A3011 RMK AO2 SLP202 T00111017 58023
KCVG 171552Z 00000KT 9SM BKN045 OVC065 02/M02 A3016 RMK AO2 SLP217 T00171017
KCVG 171652Z 16005KT 1/2SM R18C/4500V6000FT SN FG SCT009 BKN010 OVC015 01/01 A3010 RMK AO2 TWR VIS 1 SLP199 SNB25 P0002 T00060006 $
KCVG 171752Z 00000KT 1/2SM R18C/3000V4000FT SN FG BKN003 OVC007 01/01 A3007 RMK AO2 SLP187 SNINCR 1/1 4/001 931005 P0006 60008 T00060006 10017 21006 58015 $
KCVG 171852Z 08003KT 1/2SM R18C/2800V3000FT SN FG BKN004 OVC012 01/01 A3001 RMK AO2 SLP169 P0009 T00060006 $